DAL508 KATL-KLAX
Flight info
| Callsign | DAL508 |
|---|---|
| Flight time | 4h 21m |
| Altitude | 40000 |
| Route | NASSA2 YAALL J14 PNH ACH ABQ J78 DRK GABBL HLYWD1 |
| Aircraft | A333/H-SDE3GHIJ2J3J5M1RVWXY/LB2D1 |
Departure
| Time | 2026-05-07 23:00 |
|---|---|
| Airport | Hartsfield Jackson Atlanta International Airport (KATL) |
Arrival
| Time | 2026-05-08 03:21 |
|---|---|
| Airport | Los Angeles International Airport (KLAX) |
| Time | Latitude | Longitude | Altitude | Speed | Heading |
|---|---|---|---|---|---|
| 2026-05-07 22:37 | 33.64401 | -84.42644 | 1010 ft | 0 kts | 90° |
| 2026-05-07 22:48 | 33.64401 | -84.42645 | 1010 ft | 2 kts | 90° |
| 2026-05-07 22:48 | 33.64401 | -84.42665 | 1010 ft | 2 kts | 90° |
| 2026-05-07 22:48 | 33.64401 | -84.42684 | 1010 ft | 2 kts | 90° |
| 2026-05-07 22:48 | 33.64401 | -84.42704 | 1010 ft | 2 kts | 91° |
| 2026-05-07 22:49 | 33.64398 | -84.42722 | 1010 ft | 2 kts | 34° |
| 2026-05-07 22:49 | 33.64383 | -84.42730 | 1010 ft | 2 kts | 12° |
| 2026-05-07 22:49 | 33.64370 | -84.42733 | 1010 ft | 1 kts | 3° |
| 2026-05-07 22:49 | 33.64369 | -84.42733 | 1010 ft | 0 kts | 2° |
| 2026-05-07 22:52 | 33.64374 | -84.42733 | 1010 ft | 2 kts | 1° |
| 2026-05-07 22:52 | 33.64394 | -84.42733 | 1010 ft | 4 kts | 358° |
| 2026-05-07 22:53 | 33.64425 | -84.42740 | 1010 ft | 5 kts | 343° |
| 2026-05-07 22:53 | 33.64465 | -84.42757 | 1010 ft | 7 kts | 342° |
| 2026-05-07 22:53 | 33.64511 | -84.42750 | 1010 ft | 7 kts | 26° |
| 2026-05-07 22:53 | 33.64538 | -84.42696 | 1010 ft | 9 kts | 77° |
| 2026-05-07 22:54 | 33.64543 | -84.42611 | 1010 ft | 12 kts | 90° |
| 2026-05-07 22:54 | 33.64542 | -84.42505 | 1009 ft | 14 kts | 90° |
| 2026-05-07 22:54 | 33.64542 | -84.42376 | 1009 ft | 17 kts | 90° |
| 2026-05-07 22:54 | 33.64543 | -84.42232 | 1010 ft | 18 kts | 90° |
| 2026-05-07 22:55 | 33.64543 | -84.42079 | 1010 ft | 19 kts | 89° |
| 2026-05-07 22:55 | 33.64543 | -84.41921 | 1010 ft | 19 kts | 90° |
| 2026-05-07 22:55 | 33.64543 | -84.41759 | 1010 ft | 19 kts | 89° |
| 2026-05-07 22:55 | 33.64543 | -84.41599 | 1011 ft | 19 kts | 90° |
| 2026-05-07 22:56 | 33.64542 | -84.41435 | 1010 ft | 20 kts | 90° |
| 2026-05-07 22:56 | 33.64543 | -84.41266 | 1011 ft | 21 kts | 89° |
| 2026-05-07 22:56 | 33.64543 | -84.41106 | 1010 ft | 18 kts | 90° |
| 2026-05-07 22:56 | 33.64544 | -84.40954 | 1010 ft | 19 kts | 89° |
| 2026-05-07 22:57 | 33.64554 | -84.40827 | 1010 ft | 14 kts | 74° |
| 2026-05-07 22:57 | 33.64569 | -84.40710 | 1009 ft | 14 kts | 89° |
| 2026-05-07 22:57 | 33.64578 | -84.40609 | 1009 ft | 10 kts | 65° |
| 2026-05-07 22:57 | 33.64639 | -84.40581 | 1008 ft | 8 kts | 344° |
| 2026-05-07 22:58 | 33.64668 | -84.40615 | 1007 ft | 4 kts | 298° |
| 2026-05-07 22:58 | 33.64677 | -84.40654 | 1007 ft | 5 kts | 279° |
| 2026-05-07 22:58 | 33.64678 | -84.40685 | 1007 ft | 0 kts | 270° |
| 2026-05-07 22:59 | 33.64679 | -84.40723 | 1008 ft | 12 kts | 272° |
| 2026-05-07 22:59 | 33.64680 | -84.40964 | 1011 ft | 60 kts | 270° |
| 2026-05-07 23:00 | 33.64680 | -84.41753 | 1011 ft | 127 kts | 269° |
| 2026-05-07 23:00 | 33.64676 | -84.43015 | 1321 ft | 158 kts | 273° |
| 2026-05-07 23:00 | 33.64663 | -84.44384 | 2051 ft | 176 kts | 269° |
| 2026-05-07 23:00 | 33.64657 | -84.45958 | 2660 ft | 203 kts | 272° |
| 2026-05-07 23:01 | 33.64893 | -84.47765 | 3035 ft | 235 kts | 282° |
| 2026-05-07 23:01 | 33.65277 | -84.49724 | 3579 ft | 245 kts | 282° |
| 2026-05-07 23:01 | 33.65673 | -84.51723 | 4429 ft | 246 kts | 282° |
| 2026-05-07 23:01 | 33.66060 | -84.53741 | 5200 ft | 248 kts | 281° |
| 2026-05-07 23:02 | 33.66438 | -84.55753 | 6130 ft | 245 kts | 280° |
| 2026-05-07 23:02 | 33.66806 | -84.57749 | 7022 ft | 244 kts | 279° |
| 2026-05-07 23:02 | 33.67155 | -84.59745 | 7911 ft | 244 kts | 279° |
| 2026-05-07 23:02 | 33.67498 | -84.61746 | 8789 ft | 245 kts | 279° |
| 2026-05-07 23:03 | 33.67839 | -84.63750 | 9677 ft | 246 kts | 279° |
| 2026-05-07 23:03 | 33.68181 | -84.65773 | 10402 ft | 252 kts | 279° |
| 2026-05-07 23:03 | 33.68537 | -84.67911 | 10743 ft | 271 kts | 279° |
| 2026-05-07 23:03 | 33.68903 | -84.70215 | 11065 ft | 289 kts | 277° |
| 2026-05-07 23:04 | 33.69262 | -84.72596 | 11614 ft | 296 kts | 277° |
| 2026-05-07 23:04 | 33.69611 | -84.75027 | 12438 ft | 295 kts | 275° |
| 2026-05-07 23:04 | 33.69764 | -84.77475 | 13310 ft | 293 kts | 270° |
| 2026-05-07 23:04 | 33.69781 | -84.79923 | 14124 ft | 292 kts | 269° |
| 2026-05-07 23:05 | 33.69772 | -84.82372 | 14778 ft | 295 kts | 269° |
| 2026-05-07 23:05 | 33.69760 | -84.84845 | 15400 ft | 297 kts | 268° |
| 2026-05-07 23:05 | 33.69751 | -84.87339 | 16032 ft | 299 kts | 268° |
| 2026-05-07 23:05 | 33.69744 | -84.89842 | 16656 ft | 301 kts | 268° |
| 2026-05-07 23:06 | 33.69737 | -84.92364 | 17280 ft | 303 kts | 267° |
| 2026-05-07 23:06 | 33.69730 | -84.94898 | 17894 ft | 305 kts | 267° |
| 2026-05-07 23:06 | 33.69722 | -84.97454 | 18460 ft | 307 kts | 266° |
| 2026-05-07 23:06 | 33.69713 | -85.00033 | 18939 ft | 310 kts | 266° |
| 2026-05-07 23:07 | 33.69704 | -85.02636 | 19380 ft | 314 kts | 266° |
| 2026-05-07 23:07 | 33.69696 | -85.05232 | 19837 ft | 316 kts | 266° |
| 2026-05-07 23:07 | 33.69687 | -85.07891 | 20286 ft | 319 kts | 267° |
| 2026-05-07 23:07 | 33.69677 | -85.10570 | 20750 ft | 322 kts | 267° |
| 2026-05-07 23:08 | 33.69666 | -85.13267 | 21202 ft | 324 kts | 267° |
| 2026-05-07 23:08 | 33.69655 | -85.15989 | 21654 ft | 326 kts | 267° |
| 2026-05-07 23:08 | 33.69643 | -85.18721 | 22108 ft | 328 kts | 267° |
| 2026-05-07 23:08 | 33.69630 | -85.21476 | 22541 ft | 331 kts | 267° |
| 2026-05-07 23:09 | 33.69607 | -85.24248 | 22980 ft | 333 kts | 266° |
| 2026-05-07 23:09 | 33.69578 | -85.27043 | 23407 ft | 336 kts | 266° |
| 2026-05-07 23:09 | 33.69548 | -85.29858 | 23776 ft | 338 kts | 266° |
| 2026-05-07 23:09 | 33.69516 | -85.32696 | 24077 ft | 340 kts | 266° |
| 2026-05-07 23:10 | 33.69484 | -85.35508 | 24450 ft | 341 kts | 266° |
| 2026-05-07 23:10 | 33.69451 | -85.38378 | 24811 ft | 343 kts | 266° |
| 2026-05-07 23:10 | 33.69417 | -85.41253 | 25163 ft | 345 kts | 266° |
| 2026-05-07 23:10 | 33.69382 | -85.44143 | 25531 ft | 345 kts | 266° |
| 2026-05-07 23:11 | 33.69347 | -85.47033 | 25896 ft | 347 kts | 266° |
| 2026-05-07 23:11 | 33.69311 | -85.49899 | 26227 ft | 348 kts | 266° |
| 2026-05-07 23:11 | 33.69274 | -85.52818 | 26546 ft | 350 kts | 266° |
| 2026-05-07 23:11 | 33.69236 | -85.55745 | 26879 ft | 351 kts | 266° |
| 2026-05-07 23:12 | 33.69197 | -85.58692 | 27222 ft | 352 kts | 266° |
| 2026-05-07 23:12 | 33.69157 | -85.61650 | 27535 ft | 354 kts | 266° |
| 2026-05-07 23:12 | 33.69116 | -85.64623 | 27823 ft | 356 kts | 266° |
| 2026-05-07 23:12 | 33.69076 | -85.67567 | 28131 ft | 358 kts | 266° |
| 2026-05-07 23:13 | 33.69033 | -85.70560 | 28432 ft | 359 kts | 266° |
| 2026-05-07 23:13 | 33.68990 | -85.73559 | 28756 ft | 359 kts | 266° |
| 2026-05-07 23:13 | 33.68947 | -85.76569 | 29016 ft | 362 kts | 265° |
| 2026-05-07 23:13 | 33.68902 | -85.79610 | 29293 ft | 364 kts | 265° |
| 2026-05-07 23:14 | 33.68856 | -85.82657 | 29599 ft | 365 kts | 265° |
| 2026-05-07 23:14 | 33.68809 | -85.85717 | 29892 ft | 366 kts | 265° |
| 2026-05-07 23:14 | 33.68762 | -85.88744 | 30143 ft | 368 kts | 265° |
| 2026-05-07 23:14 | 33.68713 | -85.91821 | 30345 ft | 369 kts | 265° |
| 2026-05-07 23:15 | 33.68664 | -85.94913 | 30555 ft | 371 kts | 265° |
| 2026-05-07 23:15 | 33.68613 | -85.98011 | 30752 ft | 372 kts | 265° |
| 2026-05-07 23:15 | 33.68562 | -86.01122 | 30968 ft | 373 kts | 265° |
| 2026-05-07 23:15 | 33.68564 | -86.04250 | 31143 ft | 375 kts | 268° |
| 2026-05-07 23:16 | 33.68753 | -86.07397 | 31398 ft | 376 kts | 270° |
| 2026-05-07 23:16 | 33.68991 | -86.10488 | 31665 ft | 376 kts | 270° |
| 2026-05-07 23:16 | 33.69240 | -86.13613 | 31974 ft | 374 kts | 270° |
| 2026-05-07 23:16 | 33.69486 | -86.16718 | 32300 ft | 373 kts | 270° |
| 2026-05-07 23:17 | 33.69729 | -86.19810 | 32583 ft | 372 kts | 270° |
| 2026-05-07 23:17 | 33.69972 | -86.22910 | 32843 ft | 371 kts | 270° |
| 2026-05-07 23:17 | 33.70214 | -86.25991 | 33106 ft | 370 kts | 270° |
| 2026-05-07 23:17 | 33.70455 | -86.29068 | 33376 ft | 369 kts | 270° |
| 2026-05-07 23:18 | 33.70691 | -86.32093 | 33660 ft | 368 kts | 270° |
| 2026-05-07 23:18 | 33.70929 | -86.35153 | 33915 ft | 367 kts | 270° |
| 2026-05-07 23:18 | 33.71165 | -86.38200 | 34148 ft | 366 kts | 270° |
| 2026-05-07 23:18 | 33.71401 | -86.41247 | 34385 ft | 365 kts | 270° |
| 2026-05-07 23:19 | 33.71635 | -86.44288 | 34611 ft | 364 kts | 270° |
| 2026-05-07 23:19 | 33.71867 | -86.47305 | 34842 ft | 362 kts | 270° |
| 2026-05-07 23:19 | 33.72097 | -86.50316 | 35069 ft | 361 kts | 270° |
| 2026-05-07 23:19 | 33.72323 | -86.53277 | 35284 ft | 360 kts | 270° |
| 2026-05-07 23:20 | 33.72550 | -86.56270 | 35507 ft | 359 kts | 270° |
| 2026-05-07 23:20 | 33.72775 | -86.59260 | 35695 ft | 359 kts | 270° |
| 2026-05-07 23:20 | 33.73001 | -86.62252 | 35866 ft | 359 kts | 270° |
| 2026-05-07 23:20 | 33.73225 | -86.65233 | 36078 ft | 358 kts | 270° |
| 2026-05-07 23:21 | 33.73449 | -86.68207 | 36316 ft | 356 kts | 270° |
| 2026-05-07 23:21 | 33.73671 | -86.71164 | 36512 ft | 355 kts | 270° |
| 2026-05-07 23:21 | 33.73890 | -86.74117 | 36723 ft | 354 kts | 270° |
| 2026-05-07 23:21 | 33.74109 | -86.77060 | 36903 ft | 353 kts | 270° |
| 2026-05-07 23:22 | 33.74323 | -86.79964 | 37089 ft | 352 kts | 270° |
| 2026-05-07 23:22 | 33.74539 | -86.82897 | 37287 ft | 351 kts | 269° |
| 2026-05-07 23:22 | 33.74754 | -86.85814 | 37485 ft | 350 kts | 269° |
| 2026-05-07 23:22 | 33.74967 | -86.88721 | 37680 ft | 349 kts | 269° |
| 2026-05-07 23:23 | 33.75179 | -86.91625 | 37838 ft | 348 kts | 269° |
| 2026-05-07 23:23 | 33.75389 | -86.94517 | 37994 ft | 347 kts | 269° |
| 2026-05-07 23:23 | 33.75599 | -86.97418 | 38109 ft | 347 kts | 269° |
| 2026-05-07 23:23 | 33.75805 | -87.00270 | 38252 ft | 346 kts | 269° |
| 2026-05-07 23:24 | 33.76013 | -87.03154 | 38417 ft | 346 kts | 269° |
| 2026-05-07 23:24 | 33.76219 | -87.06028 | 38611 ft | 345 kts | 269° |
| 2026-05-07 23:24 | 33.76424 | -87.08899 | 38740 ft | 344 kts | 269° |
| 2026-05-07 23:25 | 33.76831 | -87.14621 | 38908 ft | 344 kts | 269° |
| 2026-05-07 23:25 | 33.77232 | -87.20321 | 39130 ft | 344 kts | 269° |
| 2026-05-07 23:26 | 33.77634 | -87.26063 | 39309 ft | 344 kts | 269° |
| 2026-05-07 23:26 | 33.77965 | -87.30829 | 39452 ft | 344 kts | 269° |
| 2026-05-07 23:26 | 33.78164 | -87.33692 | 39559 ft | 344 kts | 269° |
| 2026-05-07 23:27 | 33.78558 | -87.39458 | 39463 ft | 351 kts | 269° |
| 2026-05-07 23:27 | 33.78756 | -87.42421 | 39231 ft | 359 kts | 269° |
| 2026-05-07 23:27 | 33.78957 | -87.45444 | 39047 ft | 365 kts | 269° |
| 2026-05-07 23:28 | 33.79794 | -87.51548 | 38954 ft | 372 kts | 275° |
| 2026-05-07 23:28 | 33.80941 | -87.57624 | 39082 ft | 372 kts | 276° |
| 2026-05-07 23:29 | 33.82172 | -87.63591 | 39112 ft | 366 kts | 276° |
| 2026-05-07 23:29 | 33.82807 | -87.66570 | 39010 ft | 360 kts | 276° |
| 2026-05-07 23:29 | 33.83419 | -87.69437 | 38915 ft | 355 kts | 276° |
| 2026-05-07 23:30 | 33.84625 | -87.75118 | 38745 ft | 345 kts | 276° |
| 2026-05-07 23:30 | 33.85785 | -87.80651 | 38580 ft | 337 kts | 276° |
| 2026-05-07 23:31 | 33.86909 | -87.86072 | 38320 ft | 331 kts | 276° |
| 2026-05-07 23:31 | 33.87461 | -87.88755 | 38117 ft | 331 kts | 276° |
| 2026-05-07 23:31 | 33.88013 | -87.91463 | 38108 ft | 334 kts | 275° |
| 2026-05-07 23:32 | 33.88563 | -87.94174 | 38264 ft | 333 kts | 275° |
| 2026-05-07 23:32 | 33.89107 | -87.96857 | 38355 ft | 335 kts | 275° |
| 2026-05-07 23:32 | 33.89661 | -87.99607 | 38217 ft | 341 kts | 275° |
| 2026-05-07 23:32 | 33.90224 | -88.02408 | 38082 ft | 347 kts | 276° |
| 2026-05-07 23:33 | 33.91375 | -88.08131 | 38007 ft | 355 kts | 276° |
| 2026-05-07 23:33 | 33.92545 | -88.13924 | 38009 ft | 360 kts | 276° |
| 2026-05-07 23:34 | 33.93740 | -88.19841 | 38012 ft | 366 kts | 276° |
| 2026-05-07 23:34 | 33.94947 | -88.25854 | 38011 ft | 372 kts | 277° |
| 2026-05-07 23:35 | 33.96162 | -88.31909 | 38009 ft | 374 kts | 277° |
| 2026-05-07 23:35 | 33.97390 | -88.38007 | 38022 ft | 374 kts | 277° |
| 2026-05-07 23:36 | 33.98616 | -88.44105 | 38021 ft | 374 kts | 277° |
| 2026-05-07 23:36 | 33.99838 | -88.50201 | 38029 ft | 373 kts | 277° |
| 2026-05-07 23:37 | 34.01047 | -88.56248 | 38034 ft | 373 kts | 277° |
| 2026-05-07 23:37 | 34.02262 | -88.62345 | 38035 ft | 373 kts | 277° |
| 2026-05-07 23:38 | 34.03464 | -88.68396 | 38043 ft | 373 kts | 277° |
| 2026-05-07 23:38 | 34.04670 | -88.74483 | 38044 ft | 373 kts | 277° |
| 2026-05-07 23:39 | 34.05875 | -88.80578 | 38049 ft | 373 kts | 277° |
| 2026-05-07 23:39 | 34.07068 | -88.86631 | 38050 ft | 372 kts | 277° |
| 2026-05-07 23:40 | 34.08262 | -88.92704 | 38049 ft | 371 kts | 276° |
| 2026-05-07 23:40 | 34.09452 | -88.98777 | 38050 ft | 371 kts | 276° |
| 2026-05-07 23:41 | 34.10638 | -89.04847 | 38049 ft | 371 kts | 276° |
| 2026-05-07 23:41 | 34.11815 | -89.10887 | 38049 ft | 371 kts | 276° |
| 2026-05-07 23:42 | 34.12996 | -89.16965 | 38050 ft | 371 kts | 276° |
| 2026-05-07 23:42 | 34.14175 | -89.23051 | 38051 ft | 371 kts | 276° |
| 2026-05-07 23:43 | 34.15343 | -89.29086 | 38048 ft | 371 kts | 276° |
| 2026-05-07 23:43 | 34.16515 | -89.35172 | 38053 ft | 371 kts | 276° |
| 2026-05-07 23:44 | 34.17683 | -89.41250 | 38067 ft | 371 kts | 276° |
| 2026-05-07 23:44 | 34.18850 | -89.47343 | 38065 ft | 371 kts | 276° |
| 2026-05-07 23:45 | 34.20038 | -89.53393 | 38069 ft | 372 kts | 277° |
| 2026-05-07 23:45 | 34.21453 | -89.59427 | 38073 ft | 373 kts | 279° |
| 2026-05-07 23:46 | 34.22946 | -89.65432 | 38073 ft | 373 kts | 278° |
| 2026-05-07 23:46 | 34.24417 | -89.71399 | 38057 ft | 373 kts | 278° |
| 2026-05-07 23:47 | 34.25878 | -89.77413 | 38052 ft | 373 kts | 278° |
| 2026-05-07 23:47 | 34.27329 | -89.83429 | 38055 ft | 373 kts | 278° |
| 2026-05-07 23:48 | 34.28775 | -89.89445 | 38054 ft | 372 kts | 278° |
| 2026-05-07 23:48 | 34.30219 | -89.95465 | 38052 ft | 372 kts | 278° |
| 2026-05-07 23:49 | 34.31659 | -90.01485 | 38053 ft | 374 kts | 277° |
| 2026-05-07 23:49 | 34.33095 | -90.07502 | 38058 ft | 374 kts | 277° |
| 2026-05-07 23:50 | 34.34537 | -90.13557 | 38057 ft | 374 kts | 277° |
| 2026-05-07 23:50 | 34.35979 | -90.19621 | 38062 ft | 374 kts | 277° |
| 2026-05-07 23:51 | 34.37404 | -90.25634 | 38067 ft | 374 kts | 277° |
| 2026-05-07 23:51 | 34.38836 | -90.31687 | 38066 ft | 374 kts | 277° |
| 2026-05-07 23:52 | 34.40266 | -90.37751 | 38068 ft | 374 kts | 277° |
| 2026-05-07 23:52 | 34.41685 | -90.43781 | 38073 ft | 374 kts | 277° |
| 2026-05-07 23:53 | 34.43112 | -90.49859 | 38073 ft | 374 kts | 277° |
| 2026-05-07 23:53 | 34.44534 | -90.55929 | 38071 ft | 374 kts | 277° |
| 2026-05-07 23:54 | 34.45946 | -90.61974 | 38071 ft | 374 kts | 277° |
| 2026-05-07 23:54 | 34.47362 | -90.68048 | 38071 ft | 374 kts | 277° |
| 2026-05-07 23:55 | 34.48768 | -90.74091 | 38071 ft | 372 kts | 277° |
| 2026-05-07 23:55 | 34.50167 | -90.80122 | 38072 ft | 371 kts | 277° |
| 2026-05-07 23:56 | 34.51552 | -90.86111 | 38072 ft | 371 kts | 277° |
| 2026-05-07 23:56 | 34.52943 | -90.92143 | 38075 ft | 371 kts | 277° |
| 2026-05-07 23:57 | 34.54335 | -90.98191 | 38073 ft | 371 kts | 277° |
| 2026-05-07 23:57 | 34.55711 | -91.04184 | 38072 ft | 371 kts | 277° |
| 2026-05-07 23:58 | 34.57093 | -91.10214 | 38077 ft | 371 kts | 277° |
| 2026-05-07 23:58 | 34.58472 | -91.16252 | 38079 ft | 371 kts | 276° |
| 2026-05-07 23:59 | 34.59847 | -91.22284 | 38081 ft | 371 kts | 276° |
| 2026-05-07 23:59 | 34.61219 | -91.28322 | 38082 ft | 371 kts | 276° |
| 2026-05-08 00:00 | 34.62588 | -91.34354 | 38081 ft | 371 kts | 276° |
| 2026-05-08 00:00 | 34.63955 | -91.40396 | 38081 ft | 371 kts | 276° |
| 2026-05-08 00:01 | 34.65309 | -91.46399 | 38084 ft | 371 kts | 276° |
| 2026-05-08 00:01 | 34.66671 | -91.52453 | 38082 ft | 371 kts | 276° |
| 2026-05-08 00:02 | 34.68034 | -91.58525 | 38070 ft | 373 kts | 276° |
| 2026-05-08 00:02 | 34.69396 | -91.64602 | 38074 ft | 373 kts | 276° |
| 2026-05-08 00:03 | 34.70746 | -91.70645 | 38073 ft | 373 kts | 276° |
| 2026-05-08 00:03 | 34.72103 | -91.76735 | 38074 ft | 373 kts | 276° |
| 2026-05-08 00:04 | 34.73452 | -91.82799 | 38074 ft | 370 kts | 276° |
| 2026-05-08 00:04 | 34.74783 | -91.88806 | 38061 ft | 370 kts | 276° |
| 2026-05-08 00:05 | 34.76122 | -91.94864 | 38058 ft | 371 kts | 276° |
| 2026-05-08 00:05 | 34.77459 | -92.00930 | 38050 ft | 371 kts | 276° |
| 2026-05-08 00:06 | 34.78792 | -92.06988 | 38057 ft | 371 kts | 276° |
| 2026-05-08 00:06 | 34.80121 | -92.13063 | 38053 ft | 370 kts | 275° |
| 2026-05-08 00:07 | 34.80966 | -92.19192 | 38034 ft | 366 kts | 270° |
| 2026-05-08 00:07 | 34.81555 | -92.25324 | 38044 ft | 366 kts | 269° |
| 2026-05-08 00:08 | 34.82099 | -92.31491 | 38046 ft | 366 kts | 269° |
| 2026-05-08 00:08 | 34.82638 | -92.37622 | 38044 ft | 366 kts | 269° |
| 2026-05-08 00:09 | 34.83185 | -92.43790 | 38038 ft | 366 kts | 269° |
| 2026-05-08 00:09 | 34.83733 | -92.49950 | 38048 ft | 366 kts | 269° |
| 2026-05-08 00:10 | 34.84274 | -92.56074 | 38047 ft | 366 kts | 269° |
| 2026-05-08 00:10 | 34.84818 | -92.62248 | 38050 ft | 366 kts | 269° |
| 2026-05-08 00:11 | 34.85358 | -92.68423 | 38044 ft | 367 kts | 269° |
| 2026-05-08 00:11 | 34.85894 | -92.74578 | 38046 ft | 367 kts | 269° |
| 2026-05-08 00:12 | 34.86428 | -92.80765 | 38043 ft | 367 kts | 269° |
| 2026-05-08 00:12 | 34.86956 | -92.86935 | 38040 ft | 366 kts | 269° |
| 2026-05-08 00:13 | 34.87394 | -92.92069 | 38044 ft | 366 kts | 269° |
| 2026-05-08 00:13 | 34.88003 | -92.99254 | 38038 ft | 366 kts | 269° |
| 2026-05-08 00:14 | 34.88440 | -93.04436 | 38028 ft | 366 kts | 269° |
| 2026-05-08 00:14 | 34.88956 | -93.10588 | 38033 ft | 368 kts | 269° |
| 2026-05-08 00:15 | 34.89473 | -93.16801 | 38032 ft | 368 kts | 269° |
| 2026-05-08 00:15 | 34.89987 | -93.23011 | 38034 ft | 368 kts | 269° |
| 2026-05-08 00:16 | 34.90494 | -93.29166 | 38027 ft | 367 kts | 269° |
| 2026-05-08 00:16 | 34.91002 | -93.35390 | 38025 ft | 368 kts | 269° |
| 2026-05-08 00:17 | 34.91503 | -93.41556 | 38029 ft | 367 kts | 268° |
| 2026-05-08 00:17 | 34.92004 | -93.47760 | 38025 ft | 367 kts | 268° |
| 2026-05-08 00:18 | 34.92502 | -93.53966 | 38025 ft | 367 kts | 268° |
| 2026-05-08 00:18 | 34.92993 | -93.60129 | 38023 ft | 367 kts | 268° |
| 2026-05-08 00:19 | 34.93483 | -93.66331 | 38031 ft | 367 kts | 268° |
| 2026-05-08 00:19 | 34.93971 | -93.72535 | 38022 ft | 366 kts | 268° |
| 2026-05-08 00:20 | 34.94454 | -93.78705 | 38025 ft | 366 kts | 268° |
| 2026-05-08 00:20 | 34.94929 | -93.84847 | 38026 ft | 366 kts | 268° |
| 2026-05-08 00:21 | 34.95407 | -93.91024 | 38025 ft | 365 kts | 268° |
| 2026-05-08 00:21 | 34.95881 | -93.97209 | 38031 ft | 366 kts | 268° |
| 2026-05-08 00:22 | 34.96349 | -94.03356 | 38030 ft | 366 kts | 268° |
| 2026-05-08 00:22 | 34.96815 | -94.09543 | 38028 ft | 366 kts | 268° |
| 2026-05-08 00:23 | 34.97280 | -94.15733 | 38030 ft | 365 kts | 268° |
| 2026-05-08 00:23 | 34.97738 | -94.21872 | 38033 ft | 365 kts | 268° |
| 2026-05-08 00:24 | 34.98195 | -94.28071 | 38025 ft | 367 kts | 268° |
| 2026-05-08 00:24 | 34.98651 | -94.34275 | 38029 ft | 366 kts | 268° |
| 2026-05-08 00:25 | 34.99100 | -94.40443 | 38035 ft | 367 kts | 268° |
| 2026-05-08 00:25 | 34.99550 | -94.46645 | 38035 ft | 367 kts | 268° |
| 2026-05-08 00:26 | 34.99997 | -94.52853 | 38035 ft | 367 kts | 268° |
| 2026-05-08 00:26 | 35.00437 | -94.59019 | 38031 ft | 368 kts | 268° |
| 2026-05-08 00:27 | 35.00879 | -94.65248 | 38036 ft | 368 kts | 267° |
| 2026-05-08 00:27 | 35.01487 | -94.71481 | 38028 ft | 370 kts | 270° |
| 2026-05-08 00:28 | 35.02346 | -94.77693 | 38025 ft | 371 kts | 271° |
| 2026-05-08 00:28 | 35.03239 | -94.83900 | 38027 ft | 371 kts | 271° |
| 2026-05-08 00:29 | 35.04100 | -94.90085 | 38026 ft | 371 kts | 271° |
| 2026-05-08 00:29 | 35.04942 | -94.96295 | 38032 ft | 372 kts | 270° |
| 2026-05-08 00:30 | 35.05780 | -95.02534 | 38033 ft | 372 kts | 270° |
| 2026-05-08 00:30 | 35.06610 | -95.08724 | 38032 ft | 372 kts | 270° |
| 2026-05-08 00:31 | 35.07444 | -95.14966 | 38026 ft | 372 kts | 270° |
| 2026-05-08 00:31 | 35.08275 | -95.21214 | 38031 ft | 372 kts | 270° |
| 2026-05-08 00:32 | 35.09103 | -95.27461 | 38029 ft | 373 kts | 270° |
| 2026-05-08 00:32 | 35.09922 | -95.33665 | 38019 ft | 373 kts | 270° |
| 2026-05-08 00:33 | 35.10745 | -95.39925 | 38024 ft | 373 kts | 270° |
| 2026-05-08 00:33 | 35.11564 | -95.46188 | 38035 ft | 373 kts | 270° |
| 2026-05-08 00:34 | 35.12336 | -95.52454 | 38085 ft | 372 kts | 270° |
| 2026-05-08 00:34 | 35.13074 | -95.58675 | 38032 ft | 371 kts | 270° |
| 2026-05-08 00:35 | 35.13811 | -95.64923 | 38028 ft | 371 kts | 270° |
| 2026-05-08 00:35 | 35.14546 | -95.71163 | 38002 ft | 371 kts | 269° |
| 2026-05-08 00:36 | 35.15285 | -95.77440 | 38029 ft | 374 kts | 269° |
| 2026-05-08 00:36 | 35.16019 | -95.83696 | 38027 ft | 374 kts | 269° |
| 2026-05-08 00:37 | 35.16756 | -95.89996 | 38025 ft | 374 kts | 269° |
| 2026-05-08 00:38 | 35.17850 | -95.99414 | 38027 ft | 374 kts | 269° |
| 2026-05-08 00:38 | 35.18578 | -96.05720 | 38026 ft | 374 kts | 269° |
| 2026-05-08 00:39 | 35.19302 | -96.12028 | 38025 ft | 376 kts | 269° |
| 2026-05-08 00:39 | 35.20027 | -96.18371 | 38023 ft | 377 kts | 269° |
| 2026-05-08 00:40 | 35.20751 | -96.24720 | 38022 ft | 377 kts | 269° |
| 2026-05-08 00:40 | 35.21469 | -96.31040 | 38023 ft | 377 kts | 269° |
| 2026-05-08 00:41 | 35.22187 | -96.37400 | 38025 ft | 377 kts | 269° |
| 2026-05-08 00:41 | 35.22897 | -96.43717 | 38017 ft | 377 kts | 269° |
| 2026-05-08 00:42 | 35.23608 | -96.50072 | 38018 ft | 378 kts | 269° |
| 2026-05-08 00:42 | 35.24319 | -96.56460 | 38019 ft | 378 kts | 269° |
| 2026-05-08 00:43 | 35.25026 | -96.62838 | 38017 ft | 378 kts | 269° |
| 2026-05-08 00:43 | 35.25730 | -96.69224 | 38017 ft | 378 kts | 269° |
| 2026-05-08 00:44 | 35.26427 | -96.75580 | 38018 ft | 378 kts | 269° |
| 2026-05-08 00:44 | 35.27124 | -96.81966 | 38018 ft | 378 kts | 269° |
| 2026-05-08 00:45 | 35.27819 | -96.88372 | 38018 ft | 380 kts | 268° |
| 2026-05-08 00:45 | 35.28508 | -96.94758 | 38017 ft | 381 kts | 268° |
| 2026-05-08 00:46 | 35.29200 | -97.01189 | 38017 ft | 381 kts | 268° |
| 2026-05-08 00:46 | 35.29889 | -97.07634 | 38027 ft | 381 kts | 269° |
| 2026-05-08 00:47 | 35.30571 | -97.14039 | 38018 ft | 381 kts | 269° |
| 2026-05-08 00:47 | 35.31254 | -97.20496 | 38003 ft | 381 kts | 268° |
| 2026-05-08 00:48 | 35.31933 | -97.26938 | 38001 ft | 381 kts | 268° |
| 2026-05-08 00:48 | 35.32608 | -97.33386 | 37999 ft | 381 kts | 268° |
| 2026-05-08 00:49 | 35.33275 | -97.39783 | 37996 ft | 381 kts | 268° |
| 2026-05-08 00:49 | 35.33944 | -97.46232 | 37998 ft | 381 kts | 268° |
| 2026-05-08 00:50 | 35.34608 | -97.52668 | 37999 ft | 381 kts | 268° |
| 2026-05-08 00:50 | 35.35258 | -97.59119 | 38005 ft | 380 kts | 267° |
| 2026-05-08 00:51 | 35.35398 | -97.65559 | 37998 ft | 379 kts | 262° |
| 2026-05-08 00:51 | 35.35331 | -97.71978 | 37999 ft | 378 kts | 262° |
| 2026-05-08 00:52 | 35.35223 | -97.78424 | 37996 ft | 378 kts | 262° |
| 2026-05-08 00:52 | 35.35115 | -97.84885 | 37997 ft | 378 kts | 262° |
| 2026-05-08 00:53 | 35.35013 | -97.91299 | 37997 ft | 378 kts | 262° |
| 2026-05-08 00:53 | 35.34910 | -97.97751 | 37999 ft | 379 kts | 262° |
| 2026-05-08 00:54 | 35.34801 | -98.04260 | 37998 ft | 382 kts | 262° |
| 2026-05-08 00:54 | 35.34691 | -98.10724 | 37995 ft | 382 kts | 262° |
| 2026-05-08 00:55 | 35.34577 | -98.17229 | 37994 ft | 382 kts | 262° |
| 2026-05-08 00:55 | 35.34459 | -98.23735 | 37991 ft | 382 kts | 262° |
| 2026-05-08 00:56 | 35.34338 | -98.30248 | 37992 ft | 382 kts | 262° |
| 2026-05-08 00:56 | 35.34213 | -98.36724 | 37986 ft | 383 kts | 261° |
| 2026-05-08 00:57 | 35.34082 | -98.43277 | 37991 ft | 385 kts | 261° |
| 2026-05-08 00:57 | 35.33949 | -98.49833 | 37989 ft | 385 kts | 261° |
| 2026-05-08 00:58 | 35.33813 | -98.56392 | 37988 ft | 385 kts | 261° |
| 2026-05-08 00:58 | 35.33673 | -98.62922 | 37988 ft | 385 kts | 261° |
| 2026-05-08 00:59 | 35.33529 | -98.69475 | 37987 ft | 385 kts | 261° |
| 2026-05-08 00:59 | 35.33381 | -98.76048 | 37984 ft | 388 kts | 261° |
| 2026-05-08 01:00 | 35.33228 | -98.82639 | 37979 ft | 389 kts | 261° |
| 2026-05-08 01:00 | 35.33072 | -98.89274 | 37981 ft | 389 kts | 261° |
| 2026-05-08 01:01 | 35.32912 | -98.95898 | 37992 ft | 389 kts | 261° |
| 2026-05-08 01:01 | 35.32749 | -99.02492 | 37997 ft | 389 kts | 261° |
| 2026-05-08 01:02 | 35.32581 | -99.09121 | 37999 ft | 389 kts | 261° |
| 2026-05-08 01:02 | 35.32408 | -99.15748 | 37996 ft | 392 kts | 261° |
| 2026-05-08 01:03 | 35.32233 | -99.22424 | 37997 ft | 392 kts | 261° |
| 2026-05-08 01:03 | 35.32054 | -99.29095 | 37995 ft | 392 kts | 261° |
| 2026-05-08 01:04 | 35.31903 | -99.34645 | 38000 ft | 392 kts | 261° |
| 2026-05-08 01:04 | 35.31686 | -99.42408 | 37971 ft | 392 kts | 261° |
| 2026-05-08 01:05 | 35.31527 | -99.47961 | 37973 ft | 394 kts | 261° |
| 2026-05-08 01:05 | 35.31331 | -99.54687 | 37970 ft | 395 kts | 261° |
| 2026-05-08 01:06 | 35.31132 | -99.61420 | 37966 ft | 395 kts | 261° |
| 2026-05-08 01:06 | 35.30930 | -99.68144 | 37964 ft | 395 kts | 261° |
| 2026-05-08 01:07 | 35.30724 | -99.74873 | 37975 ft | 395 kts | 261° |
| 2026-05-08 01:07 | 35.30515 | -99.81570 | 37968 ft | 395 kts | 261° |
| 2026-05-08 01:08 | 35.30300 | -99.88317 | 37965 ft | 397 kts | 261° |
| 2026-05-08 01:08 | 35.30083 | -99.95032 | 37967 ft | 397 kts | 261° |
| 2026-05-08 01:09 | 35.29861 | -100.01801 | 37966 ft | 397 kts | 261° |
| 2026-05-08 01:09 | 35.29636 | -100.08562 | 37965 ft | 397 kts | 261° |
| 2026-05-08 01:10 | 35.29407 | -100.15280 | 37963 ft | 397 kts | 261° |
| 2026-05-08 01:10 | 35.29174 | -100.22032 | 37963 ft | 398 kts | 261° |
| 2026-05-08 01:11 | 35.28932 | -100.28850 | 37961 ft | 401 kts | 261° |
| 2026-05-08 01:11 | 35.28691 | -100.35622 | 37960 ft | 400 kts | 261° |
| 2026-05-08 01:12 | 35.28444 | -100.42448 | 37963 ft | 401 kts | 261° |
| 2026-05-08 01:12 | 35.28192 | -100.49269 | 37960 ft | 400 kts | 261° |
| 2026-05-08 01:13 | 35.27938 | -100.56048 | 37962 ft | 401 kts | 261° |
| 2026-05-08 01:13 | 35.27677 | -100.62891 | 37958 ft | 404 kts | 260° |
| 2026-05-08 01:14 | 35.27412 | -100.69764 | 37957 ft | 404 kts | 260° |
| 2026-05-08 01:14 | 35.27145 | -100.76628 | 37949 ft | 404 kts | 260° |
| 2026-05-08 01:15 | 35.26869 | -100.83495 | 37957 ft | 407 kts | 261° |
| 2026-05-08 01:15 | 35.26589 | -100.90427 | 37948 ft | 407 kts | 261° |
| 2026-05-08 01:16 | 35.26307 | -100.97350 | 37950 ft | 407 kts | 261° |
| 2026-05-08 01:16 | 35.26022 | -101.04235 | 37947 ft | 407 kts | 261° |
| 2026-05-08 01:17 | 35.25731 | -101.11159 | 37945 ft | 407 kts | 261° |
| 2026-05-08 01:17 | 35.25436 | -101.18082 | 37944 ft | 407 kts | 261° |
| 2026-05-08 01:18 | 35.25136 | -101.25021 | 37946 ft | 407 kts | 261° |
| 2026-05-08 01:18 | 35.24833 | -101.31916 | 37951 ft | 409 kts | 261° |
| 2026-05-08 01:19 | 35.24521 | -101.38906 | 37969 ft | 411 kts | 261° |
| 2026-05-08 01:19 | 35.24210 | -101.45850 | 37980 ft | 411 kts | 261° |
| 2026-05-08 01:20 | 35.23893 | -101.52845 | 37994 ft | 411 kts | 261° |
| 2026-05-08 01:20 | 35.23572 | -101.59831 | 38008 ft | 411 kts | 260° |
| 2026-05-08 01:21 | 35.23246 | -101.66812 | 38010 ft | 411 kts | 260° |
| 2026-05-08 01:21 | 35.22975 | -101.73849 | 38008 ft | 416 kts | 262° |
| 2026-05-08 01:22 | 35.22811 | -101.80900 | 38011 ft | 416 kts | 262° |
| 2026-05-08 01:22 | 35.22660 | -101.87987 | 37994 ft | 417 kts | 262° |
| 2026-05-08 01:23 | 35.22494 | -101.95082 | 37980 ft | 416 kts | 262° |
| 2026-05-08 01:23 | 35.22316 | -102.02164 | 37969 ft | 416 kts | 262° |
| 2026-05-08 01:24 | 35.22130 | -102.09234 | 37955 ft | 420 kts | 262° |
| 2026-05-08 01:24 | 35.21938 | -102.16386 | 37944 ft | 420 kts | 262° |
| 2026-05-08 01:25 | 35.21745 | -102.23499 | 37945 ft | 420 kts | 262° |
| 2026-05-08 01:25 | 35.21547 | -102.30644 | 37946 ft | 420 kts | 262° |
| 2026-05-08 01:26 | 35.21344 | -102.37805 | 37955 ft | 420 kts | 262° |
| 2026-05-08 01:26 | 35.21136 | -102.44972 | 37951 ft | 424 kts | 262° |
| 2026-05-08 01:27 | 35.20922 | -102.52206 | 37954 ft | 426 kts | 262° |
| 2026-05-08 01:27 | 35.20704 | -102.59425 | 37952 ft | 426 kts | 262° |
| 2026-05-08 01:28 | 35.20481 | -102.66672 | 37955 ft | 426 kts | 262° |
| 2026-05-08 01:28 | 35.20253 | -102.73924 | 37955 ft | 426 kts | 262° |
| 2026-05-08 01:29 | 35.20020 | -102.81192 | 37954 ft | 430 kts | 262° |
| 2026-05-08 01:29 | 35.19779 | -102.88535 | 37952 ft | 432 kts | 262° |
| 2026-05-08 01:30 | 35.19537 | -102.95835 | 37945 ft | 432 kts | 262° |
| 2026-05-08 01:30 | 35.19289 | -103.03187 | 37947 ft | 432 kts | 262° |
| 2026-05-08 01:31 | 35.19036 | -103.10539 | 37937 ft | 432 kts | 262° |
| 2026-05-08 01:31 | 35.18777 | -103.17919 | 37940 ft | 436 kts | 262° |
| 2026-05-08 01:32 | 35.18512 | -103.25310 | 37939 ft | 438 kts | 262° |
| 2026-05-08 01:32 | 35.18242 | -103.32755 | 37953 ft | 438 kts | 262° |
| 2026-05-08 01:33 | 35.17967 | -103.40198 | 37963 ft | 438 kts | 262° |
| 2026-05-08 01:33 | 35.17687 | -103.47633 | 37976 ft | 438 kts | 262° |
| 2026-05-08 01:34 | 35.17402 | -103.55080 | 37980 ft | 442 kts | 262° |
| 2026-05-08 01:34 | 35.17111 | -103.62587 | 37980 ft | 442 kts | 262° |
| 2026-05-08 01:35 | 35.16817 | -103.70053 | 37981 ft | 442 kts | 262° |
| 2026-05-08 01:35 | 35.16517 | -103.77566 | 37967 ft | 442 kts | 262° |
| 2026-05-08 01:36 | 35.16211 | -103.85076 | 37947 ft | 442 kts | 262° |
| 2026-05-08 01:36 | 35.15899 | -103.92632 | 37926 ft | 447 kts | 262° |
| 2026-05-08 01:37 | 35.15582 | -104.00233 | 37898 ft | 447 kts | 262° |
| 2026-05-08 01:37 | 35.15260 | -104.07816 | 37892 ft | 447 kts | 262° |
| 2026-05-08 01:38 | 35.14937 | -104.15358 | 37891 ft | 447 kts | 262° |
| 2026-05-08 01:38 | 35.14604 | -104.22948 | 37889 ft | 448 kts | 263° |
| 2026-05-08 01:39 | 35.14263 | -104.30602 | 37894 ft | 451 kts | 263° |
| 2026-05-08 01:39 | 35.13919 | -104.38256 | 37915 ft | 451 kts | 263° |
| 2026-05-08 01:40 | 35.13573 | -104.45876 | 37929 ft | 451 kts | 262° |
| 2026-05-08 01:40 | 35.13219 | -104.53534 | 37943 ft | 451 kts | 262° |
| 2026-05-08 01:41 | 35.12861 | -104.61200 | 37952 ft | 451 kts | 262° |
| 2026-05-08 01:41 | 35.12499 | -104.68819 | 37960 ft | 451 kts | 262° |
| 2026-05-08 01:42 | 35.12130 | -104.76492 | 37949 ft | 451 kts | 262° |
| 2026-05-08 01:42 | 35.11758 | -104.84148 | 37939 ft | 451 kts | 262° |
| 2026-05-08 01:43 | 35.11380 | -104.91799 | 37918 ft | 452 kts | 262° |
| 2026-05-08 01:43 | 35.10997 | -104.99439 | 37900 ft | 454 kts | 262° |
| 2026-05-08 01:44 | 35.10643 | -105.07163 | 37890 ft | 454 kts | 263° |
| 2026-05-08 01:44 | 35.10396 | -105.14885 | 37905 ft | 454 kts | 264° |
| 2026-05-08 01:45 | 35.10170 | -105.22558 | 37914 ft | 455 kts | 264° |
| 2026-05-08 01:45 | 35.09927 | -105.30290 | 37913 ft | 456 kts | 264° |
| 2026-05-08 01:46 | 35.09669 | -105.38058 | 37946 ft | 459 kts | 264° |
| 2026-05-08 01:46 | 35.09404 | -105.45846 | 37941 ft | 459 kts | 264° |
| 2026-05-08 01:47 | 35.09135 | -105.53584 | 37962 ft | 459 kts | 264° |
| 2026-05-08 01:47 | 35.08860 | -105.61369 | 37963 ft | 459 kts | 263° |
| 2026-05-08 01:48 | 35.08435 | -105.73094 | 37981 ft | 463 kts | 264° |
| 2026-05-08 01:48 | 35.08145 | -105.80950 | 37981 ft | 463 kts | 264° |
| 2026-05-08 01:49 | 35.07849 | -105.88800 | 37981 ft | 463 kts | 264° |
| 2026-05-08 01:49 | 35.07549 | -105.96652 | 37975 ft | 463 kts | 263° |
| 2026-05-08 01:50 | 35.07244 | -106.04479 | 37977 ft | 467 kts | 264° |
| 2026-05-08 01:50 | 35.06929 | -106.12412 | 37975 ft | 467 kts | 264° |
| 2026-05-08 01:51 | 35.06612 | -106.20296 | 37978 ft | 467 kts | 264° |
| 2026-05-08 01:51 | 35.06288 | -106.28213 | 37997 ft | 467 kts | 264° |
| 2026-05-08 01:52 | 35.05958 | -106.36139 | 38013 ft | 468 kts | 264° |
| 2026-05-08 01:52 | 35.05623 | -106.44072 | 38036 ft | 471 kts | 264° |
| 2026-05-08 01:53 | 35.05281 | -106.52058 | 38058 ft | 471 kts | 264° |
| 2026-05-08 01:53 | 35.04934 | -106.60046 | 38052 ft | 471 kts | 264° |
| 2026-05-08 01:54 | 35.04641 | -106.66686 | 38053 ft | 471 kts | 263° |
| 2026-05-08 01:54 | 35.04283 | -106.74711 | 38060 ft | 475 kts | 264° |
| 2026-05-08 01:55 | 35.03930 | -106.82773 | 38063 ft | 475 kts | 264° |
| 2026-05-08 01:55 | 35.03706 | -106.90788 | 37904 ft | 475 kts | 265° |
| 2026-05-08 01:56 | 35.03529 | -106.98853 | 37905 ft | 475 kts | 265° |
| 2026-05-08 01:56 | 35.03338 | -107.06925 | 37913 ft | 478 kts | 266° |
| 2026-05-08 01:57 | 35.03129 | -107.15068 | 37909 ft | 480 kts | 265° |
| 2026-05-08 01:57 | 35.02911 | -107.23209 | 37921 ft | 480 kts | 265° |
| 2026-05-08 01:58 | 35.02687 | -107.31314 | 37925 ft | 480 kts | 265° |
| 2026-05-08 01:58 | 35.02457 | -107.39462 | 37931 ft | 480 kts | 265° |
| 2026-05-08 01:59 | 35.02221 | -107.47623 | 37943 ft | 482 kts | 266° |
| 2026-05-08 01:59 | 35.01978 | -107.55806 | 37939 ft | 480 kts | 266° |
| 2026-05-08 02:00 | 35.01734 | -107.63920 | 37947 ft | 482 kts | 266° |
| 2026-05-08 02:00 | 35.01482 | -107.72091 | 37951 ft | 481 kts | 265° |
| 2026-05-08 02:01 | 35.01224 | -107.80276 | 37949 ft | 486 kts | 265° |
| 2026-05-08 02:01 | 35.00959 | -107.88516 | 37957 ft | 486 kts | 265° |
| 2026-05-08 02:02 | 35.00688 | -107.96759 | 37953 ft | 486 kts | 266° |
| 2026-05-08 02:02 | 35.00413 | -108.04937 | 37950 ft | 486 kts | 265° |
| 2026-05-08 02:03 | 35.00130 | -108.13193 | 37953 ft | 486 kts | 266° |
| 2026-05-08 02:03 | 34.99842 | -108.21444 | 37950 ft | 486 kts | 265° |
| 2026-05-08 02:04 | 34.99550 | -108.29639 | 37947 ft | 486 kts | 265° |
| 2026-05-08 02:04 | 34.99250 | -108.37887 | 37951 ft | 486 kts | 265° |
| 2026-05-08 02:05 | 34.98946 | -108.46126 | 37944 ft | 489 kts | 265° |
| 2026-05-08 02:05 | 34.99083 | -108.50256 | 37548 ft | 489 kts | 284° |
| 2026-05-08 02:05 | 35.00577 | -108.53966 | 36008 ft | 490 kts | 306° |
| 2026-05-08 02:06 | 35.03027 | -108.56761 | 34807 ft | 482 kts | 328° |
| 2026-05-08 02:06 | 35.05857 | -108.58911 | 34488 ft | 477 kts | 326° |
| 2026-05-08 02:06 | 35.10979 | -108.63996 | 35068 ft | 468 kts | 309° |
| 2026-05-08 02:07 | 35.12769 | -108.67234 | 36125 ft | 452 kts | 300° |
| 2026-05-08 02:07 | 35.14290 | -108.70511 | 37134 ft | 433 kts | 297° |
| 2026-05-08 02:07 | 35.15636 | -108.73707 | 38169 ft | 413 kts | 295° |
| 2026-05-08 02:07 | 35.16814 | -108.76780 | 39105 ft | 393 kts | 292° |
| 2026-05-08 02:08 | 35.17860 | -108.79768 | 39952 ft | 371 kts | 290° |
| 2026-05-08 02:08 | 35.18772 | -108.82632 | 40544 ft | 359 kts | 288° |
| 2026-05-08 02:08 | 35.19454 | -108.85605 | 40440 ft | 363 kts | 271° |
| 2026-05-08 02:08 | 35.19183 | -108.88603 | 40904 ft | 350 kts | 254° |
| 2026-05-08 02:09 | 35.17786 | -108.94424 | 40279 ft | 375 kts | 251° |
| 2026-05-08 02:09 | 35.16933 | -108.97522 | 39753 ft | 394 kts | 249° |
| 2026-05-08 02:09 | 35.15947 | -109.00736 | 39252 ft | 413 kts | 247° |
| 2026-05-08 02:10 | 35.14815 | -109.04060 | 38733 ft | 433 kts | 245° |
| 2026-05-08 02:10 | 35.13543 | -109.07435 | 38133 ft | 453 kts | 243° |
| 2026-05-08 02:10 | 35.12080 | -109.10950 | 37469 ft | 473 kts | 241° |
| 2026-05-08 02:10 | 35.10517 | -109.14506 | 37565 ft | 475 kts | 240° |
| 2026-05-08 02:11 | 35.08877 | -109.18013 | 37803 ft | 475 kts | 238° |
| 2026-05-08 02:11 | 35.07175 | -109.21498 | 37819 ft | 479 kts | 237° |
| 2026-05-08 02:11 | 35.03507 | -109.28339 | 38012 ft | 483 kts | 234° |
| 2026-05-08 02:12 | 35.01597 | -109.31721 | 38159 ft | 482 kts | 240° |
| 2026-05-08 02:12 | 35.00174 | -109.35390 | 38482 ft | 475 kts | 250° |
| 2026-05-08 02:12 | 34.99120 | -109.39160 | 38647 ft | 476 kts | 250° |
| 2026-05-08 02:12 | 34.97960 | -109.42946 | 38761 ft | 477 kts | 247° |
| 2026-05-08 02:13 | 34.95277 | -109.50393 | 38850 ft | 483 kts | 243° |
| 2026-05-08 02:13 | 34.94018 | -109.54184 | 38774 ft | 484 kts | 255° |
| 2026-05-08 02:13 | 34.93363 | -109.58220 | 38681 ft | 488 kts | 261° |
| 2026-05-08 02:14 | 34.92924 | -109.62382 | 38439 ft | 495 kts | 263° |
| 2026-05-08 02:14 | 34.92598 | -109.66518 | 38162 ft | 497 kts | 264° |
| 2026-05-08 02:14 | 34.92312 | -109.70724 | 37962 ft | 497 kts | 265° |
| 2026-05-08 02:14 | 34.92035 | -109.74931 | 37944 ft | 497 kts | 265° |
| 2026-05-08 02:15 | 34.91448 | -109.83291 | 37949 ft | 498 kts | 265° |
| 2026-05-08 02:15 | 34.90807 | -109.91702 | 37945 ft | 498 kts | 264° |
| 2026-05-08 02:16 | 34.90141 | -110.00131 | 37945 ft | 498 kts | 264° |
| 2026-05-08 02:16 | 34.89469 | -110.08540 | 37948 ft | 498 kts | 264° |
| 2026-05-08 02:17 | 34.88797 | -110.16929 | 37950 ft | 493 kts | 265° |
| 2026-05-08 02:17 | 34.88153 | -110.25078 | 37956 ft | 478 kts | 265° |
| 2026-05-08 02:18 | 34.87844 | -110.29019 | 37964 ft | 456 kts | 265° |
| 2026-05-08 02:18 | 34.87552 | -110.32785 | 37964 ft | 440 kts | 265° |
| 2026-05-08 02:18 | 34.86987 | -110.40135 | 37961 ft | 432 kts | 265° |
| 2026-05-08 02:19 | 34.86402 | -110.47443 | 37959 ft | 437 kts | 265° |
| 2026-05-08 02:19 | 34.85784 | -110.54816 | 37969 ft | 437 kts | 265° |
| 2026-05-08 02:20 | 34.85159 | -110.62187 | 37969 ft | 437 kts | 265° |
| 2026-05-08 02:20 | 34.84538 | -110.69495 | 38053 ft | 437 kts | 265° |
| 2026-05-08 02:21 | 34.83909 | -110.76877 | 38046 ft | 437 kts | 265° |
| 2026-05-08 02:21 | 34.83277 | -110.84232 | 38039 ft | 437 kts | 265° |
| 2026-05-08 02:22 | 34.82645 | -110.91545 | 38029 ft | 437 kts | 265° |
| 2026-05-08 02:22 | 34.82003 | -110.98913 | 38012 ft | 437 kts | 265° |
| 2026-05-08 02:23 | 34.81357 | -111.06271 | 38003 ft | 437 kts | 265° |
| 2026-05-08 02:23 | 34.80707 | -111.13633 | 37998 ft | 437 kts | 265° |
| 2026-05-08 02:24 | 34.80056 | -111.20956 | 37999 ft | 438 kts | 265° |
| 2026-05-08 02:24 | 34.79395 | -111.28340 | 37996 ft | 439 kts | 265° |
| 2026-05-08 02:25 | 34.78728 | -111.35726 | 37993 ft | 439 kts | 265° |
| 2026-05-08 02:25 | 34.78058 | -111.43108 | 37974 ft | 438 kts | 265° |
| 2026-05-08 02:26 | 34.77387 | -111.50438 | 37974 ft | 438 kts | 265° |
| 2026-05-08 02:26 | 34.76707 | -111.57816 | 38016 ft | 439 kts | 265° |
| 2026-05-08 02:27 | 34.76025 | -111.65192 | 38024 ft | 438 kts | 265° |
| 2026-05-08 02:27 | 34.75336 | -111.72567 | 38048 ft | 438 kts | 264° |
| 2026-05-08 02:28 | 34.74647 | -111.79902 | 38049 ft | 438 kts | 264° |
| 2026-05-08 02:28 | 34.73952 | -111.87281 | 38037 ft | 440 kts | 265° |
| 2026-05-08 02:29 | 34.73249 | -111.94671 | 38016 ft | 440 kts | 264° |
| 2026-05-08 02:29 | 34.72539 | -112.02077 | 37988 ft | 440 kts | 264° |
| 2026-05-08 02:30 | 34.71830 | -112.09428 | 37966 ft | 440 kts | 264° |
| 2026-05-08 02:30 | 34.71111 | -112.16838 | 37996 ft | 439 kts | 264° |
| 2026-05-08 02:31 | 34.70394 | -112.24160 | 38037 ft | 437 kts | 264° |
| 2026-05-08 02:31 | 34.69673 | -112.31499 | 38069 ft | 437 kts | 264° |
| 2026-05-08 02:32 | 34.68949 | -112.38828 | 38073 ft | 437 kts | 264° |
| 2026-05-08 02:32 | 34.68218 | -112.46187 | 38049 ft | 437 kts | 263° |
| 2026-05-08 02:33 | 34.67490 | -112.53455 | 37925 ft | 434 kts | 263° |
| 2026-05-08 02:33 | 34.66757 | -112.60728 | 37923 ft | 433 kts | 263° |
| 2026-05-08 02:34 | 34.66021 | -112.67999 | 37919 ft | 433 kts | 263° |
| 2026-05-08 02:34 | 34.65280 | -112.75272 | 37918 ft | 433 kts | 263° |
| 2026-05-08 02:35 | 34.64541 | -112.82482 | 37917 ft | 433 kts | 263° |
| 2026-05-08 02:35 | 34.63788 | -112.89775 | 37906 ft | 434 kts | 263° |
| 2026-05-08 02:36 | 34.63039 | -112.97003 | 37908 ft | 433 kts | 263° |
| 2026-05-08 02:36 | 34.62280 | -113.04275 | 37894 ft | 434 kts | 263° |
| 2026-05-08 02:37 | 34.61517 | -113.11541 | 37877 ft | 434 kts | 263° |
| 2026-05-08 02:37 | 34.60746 | -113.18851 | 37883 ft | 438 kts | 263° |
| 2026-05-08 02:38 | 34.59972 | -113.26149 | 37861 ft | 438 kts | 263° |
| 2026-05-08 02:38 | 34.59188 | -113.33491 | 37863 ft | 439 kts | 263° |
| 2026-05-08 02:39 | 34.58398 | -113.40833 | 37847 ft | 438 kts | 263° |
| 2026-05-08 02:39 | 34.57608 | -113.48170 | 37847 ft | 439 kts | 264° |
| 2026-05-08 02:40 | 34.56808 | -113.55541 | 37837 ft | 440 kts | 264° |
| 2026-05-08 02:40 | 34.56138 | -113.61662 | 37837 ft | 440 kts | 264° |
| 2026-05-08 02:41 | 34.55196 | -113.70230 | 37834 ft | 440 kts | 264° |
| 2026-05-08 02:41 | 34.54382 | -113.77597 | 37822 ft | 440 kts | 263° |
| 2026-05-08 02:42 | 34.53704 | -113.83676 | 37829 ft | 436 kts | 263° |
| 2026-05-08 02:42 | 34.52893 | -113.90941 | 37820 ft | 434 kts | 263° |
| 2026-05-08 02:43 | 34.52078 | -113.98209 | 37823 ft | 435 kts | 263° |
| 2026-05-08 02:43 | 34.51181 | -114.05454 | 37851 ft | 436 kts | 258° |
| 2026-05-08 02:44 | 34.49823 | -114.12624 | 37823 ft | 436 kts | 257° |
| 2026-05-08 02:44 | 34.48368 | -114.19759 | 37828 ft | 436 kts | 256° |
| 2026-05-08 02:45 | 34.46881 | -114.26850 | 37838 ft | 436 kts | 256° |
| 2026-05-08 02:45 | 34.45369 | -114.33981 | 37840 ft | 436 kts | 256° |
| 2026-05-08 02:46 | 34.43851 | -114.41104 | 37808 ft | 437 kts | 256° |
| 2026-05-08 02:46 | 34.42317 | -114.48279 | 37798 ft | 441 kts | 256° |
| 2026-05-08 02:47 | 34.40780 | -114.55435 | 37791 ft | 441 kts | 256° |
| 2026-05-08 02:47 | 34.39230 | -114.62629 | 37717 ft | 441 kts | 256° |
| 2026-05-08 02:48 | 34.38453 | -114.66220 | 37203 ft | 441 kts | 256° |
| 2026-05-08 02:48 | 34.37676 | -114.69816 | 36905 ft | 441 kts | 256° |
| 2026-05-08 02:48 | 34.36895 | -114.73417 | 36649 ft | 443 kts | 256° |
| 2026-05-08 02:48 | 34.36109 | -114.77032 | 36411 ft | 444 kts | 256° |
| 2026-05-08 02:49 | 34.35323 | -114.80646 | 36146 ft | 444 kts | 256° |
| 2026-05-08 02:49 | 34.34533 | -114.84266 | 35889 ft | 445 kts | 256° |
| 2026-05-08 02:49 | 34.33751 | -114.87845 | 35642 ft | 445 kts | 256° |
| 2026-05-08 02:49 | 34.32957 | -114.91476 | 35394 ft | 446 kts | 256° |
| 2026-05-08 02:50 | 34.32159 | -114.95118 | 35143 ft | 447 kts | 256° |
| 2026-05-08 02:50 | 34.31361 | -114.98751 | 34906 ft | 447 kts | 255° |
| 2026-05-08 02:50 | 34.30559 | -115.02396 | 34656 ft | 448 kts | 255° |
| 2026-05-08 02:50 | 34.29758 | -115.06029 | 34420 ft | 447 kts | 255° |
| 2026-05-08 02:51 | 34.28957 | -115.09659 | 34231 ft | 447 kts | 255° |
| 2026-05-08 02:51 | 34.28155 | -115.13288 | 33999 ft | 447 kts | 255° |
| 2026-05-08 02:51 | 34.27350 | -115.16926 | 33763 ft | 448 kts | 255° |
| 2026-05-08 02:51 | 34.26544 | -115.20566 | 33490 ft | 449 kts | 255° |
| 2026-05-08 02:52 | 34.25761 | -115.24176 | 33234 ft | 450 kts | 256° |
| 2026-05-08 02:52 | 34.24979 | -115.27837 | 32972 ft | 451 kts | 256° |
| 2026-05-08 02:52 | 34.24194 | -115.31518 | 32708 ft | 454 kts | 256° |
| 2026-05-08 02:52 | 34.23397 | -115.35246 | 32443 ft | 455 kts | 255° |
| 2026-05-08 02:53 | 34.22609 | -115.38919 | 32174 ft | 446 kts | 256° |
| 2026-05-08 02:53 | 34.21839 | -115.42516 | 31879 ft | 439 kts | 256° |
| 2026-05-08 02:53 | 34.21078 | -115.46076 | 31643 ft | 437 kts | 256° |
| 2026-05-08 02:53 | 34.20313 | -115.49646 | 31407 ft | 439 kts | 256° |
| 2026-05-08 02:54 | 34.19553 | -115.53184 | 31171 ft | 441 kts | 256° |
| 2026-05-08 02:54 | 34.18777 | -115.56785 | 30918 ft | 443 kts | 255° |
| 2026-05-08 02:54 | 34.17997 | -115.60393 | 30682 ft | 444 kts | 255° |
| 2026-05-08 02:54 | 34.17214 | -115.64009 | 30444 ft | 447 kts | 255° |
| 2026-05-08 02:55 | 34.16431 | -115.67691 | 30016 ft | 454 kts | 257° |
| 2026-05-08 02:55 | 34.15500 | -115.75284 | 28453 ft | 454 kts | 263° |
| 2026-05-08 02:55 | 34.15141 | -115.79043 | 28032 ft | 447 kts | 264° |
| 2026-05-08 02:56 | 34.14791 | -115.82716 | 27494 ft | 444 kts | 264° |
| 2026-05-08 02:56 | 34.14437 | -115.86410 | 26948 ft | 441 kts | 263° |
| 2026-05-08 02:56 | 34.14084 | -115.90072 | 26420 ft | 437 kts | 263° |
| 2026-05-08 02:56 | 34.13732 | -115.93706 | 25898 ft | 434 kts | 263° |
| 2026-05-08 02:57 | 34.13380 | -115.97318 | 25390 ft | 430 kts | 263° |
| 2026-05-08 02:57 | 34.13030 | -116.00892 | 24915 ft | 426 kts | 263° |
| 2026-05-08 02:57 | 34.12684 | -116.04438 | 24410 ft | 424 kts | 263° |
| 2026-05-08 02:57 | 34.12345 | -116.07909 | 24071 ft | 421 kts | 263° |
| 2026-05-08 02:58 | 34.12003 | -116.11414 | 23967 ft | 421 kts | 263° |
| 2026-05-08 02:58 | 34.11655 | -116.14937 | 23956 ft | 422 kts | 263° |
| 2026-05-08 02:58 | 34.11305 | -116.18465 | 23956 ft | 422 kts | 263° |
| 2026-05-08 02:58 | 34.10955 | -116.21984 | 23953 ft | 422 kts | 263° |
| 2026-05-08 02:59 | 34.10605 | -116.25498 | 23891 ft | 422 kts | 263° |
| 2026-05-08 02:59 | 34.10252 | -116.29019 | 23882 ft | 421 kts | 263° |
| 2026-05-08 02:59 | 34.09888 | -116.32514 | 23886 ft | 420 kts | 262° |
| 2026-05-08 02:59 | 34.09520 | -116.35969 | 23884 ft | 421 kts | 262° |
| 2026-05-08 03:00 | 34.09145 | -116.39469 | 23894 ft | 421 kts | 262° |
| 2026-05-08 03:00 | 34.08769 | -116.42975 | 23895 ft | 421 kts | 262° |
| 2026-05-08 03:00 | 34.08391 | -116.46485 | 23893 ft | 421 kts | 262° |
| 2026-05-08 03:00 | 34.08013 | -116.49990 | 23892 ft | 421 kts | 262° |
| 2026-05-08 03:01 | 34.07633 | -116.53504 | 23907 ft | 421 kts | 262° |
| 2026-05-08 03:01 | 34.07254 | -116.56997 | 23789 ft | 419 kts | 262° |
| 2026-05-08 03:01 | 34.06900 | -116.60474 | 23496 ft | 416 kts | 263° |
| 2026-05-08 03:01 | 34.06576 | -116.63933 | 22844 ft | 414 kts | 263° |
| 2026-05-08 03:02 | 34.06265 | -116.67322 | 22335 ft | 409 kts | 263° |
| 2026-05-08 03:02 | 34.05953 | -116.70720 | 21794 ft | 405 kts | 263° |
| 2026-05-08 03:02 | 34.05641 | -116.74093 | 21264 ft | 402 kts | 263° |
| 2026-05-08 03:02 | 34.05328 | -116.77430 | 20695 ft | 399 kts | 263° |
| 2026-05-08 03:03 | 34.05010 | -116.80747 | 20107 ft | 397 kts | 263° |
| 2026-05-08 03:03 | 34.04699 | -116.84052 | 19551 ft | 394 kts | 262° |
| 2026-05-08 03:03 | 34.04392 | -116.87325 | 19081 ft | 390 kts | 262° |
| 2026-05-08 03:03 | 34.04040 | -116.90510 | 18698 ft | 385 kts | 260° |
| 2026-05-08 03:04 | 34.03634 | -116.93701 | 18186 ft | 382 kts | 259° |
| 2026-05-08 03:04 | 34.03224 | -116.96855 | 17553 ft | 380 kts | 259° |
| 2026-05-08 03:04 | 34.02817 | -116.99985 | 17021 ft | 377 kts | 259° |
| 2026-05-08 03:04 | 34.02415 | -117.03096 | 16452 ft | 374 kts | 259° |
| 2026-05-08 03:05 | 34.02041 | -117.06190 | 15912 ft | 371 kts | 260° |
| 2026-05-08 03:05 | 34.01678 | -117.09257 | 15365 ft | 368 kts | 260° |
| 2026-05-08 03:05 | 34.01321 | -117.12288 | 14984 ft | 361 kts | 260° |
| 2026-05-08 03:05 | 34.00977 | -117.15215 | 14633 ft | 353 kts | 259° |
| 2026-05-08 03:06 | 34.00633 | -117.18133 | 14176 ft | 350 kts | 259° |
| 2026-05-08 03:06 | 34.00292 | -117.21021 | 13748 ft | 347 kts | 259° |
| 2026-05-08 03:06 | 33.99949 | -117.23897 | 13252 ft | 344 kts | 259° |
| 2026-05-08 03:06 | 33.99610 | -117.26738 | 12766 ft | 341 kts | 259° |
| 2026-05-08 03:07 | 33.99272 | -117.29552 | 12286 ft | 337 kts | 260° |
| 2026-05-08 03:07 | 33.98941 | -117.32339 | 11825 ft | 334 kts | 260° |
| 2026-05-08 03:07 | 33.98621 | -117.35062 | 11378 ft | 330 kts | 261° |
| 2026-05-08 03:07 | 33.98303 | -117.37783 | 11018 ft | 323 kts | 261° |
| 2026-05-08 03:08 | 33.97993 | -117.40431 | 10717 ft | 315 kts | 261° |
| 2026-05-08 03:08 | 33.97690 | -117.43027 | 10354 ft | 310 kts | 261° |
| 2026-05-08 03:08 | 33.97393 | -117.45583 | 10062 ft | 304 kts | 261° |
| 2026-05-08 03:08 | 33.97163 | -117.48074 | 9994 ft | 295 kts | 267° |
| 2026-05-08 03:09 | 33.97268 | -117.50533 | 10004 ft | 293 kts | 275° |
| 2026-05-08 03:09 | 33.97542 | -117.52961 | 10001 ft | 292 kts | 278° |
| 2026-05-08 03:09 | 33.97911 | -117.55332 | 10008 ft | 289 kts | 280° |
| 2026-05-08 03:09 | 33.98335 | -117.57696 | 10009 ft | 286 kts | 281° |
| 2026-05-08 03:10 | 33.98783 | -117.60047 | 10013 ft | 288 kts | 281° |
| 2026-05-08 03:10 | 33.99231 | -117.62403 | 10008 ft | 288 kts | 281° |
| 2026-05-08 03:10 | 33.99666 | -117.64757 | 10007 ft | 287 kts | 281° |
| 2026-05-08 03:10 | 34.00072 | -117.67118 | 10015 ft | 288 kts | 276° |
| 2026-05-08 03:11 | 34.00145 | -117.69527 | 10004 ft | 287 kts | 268° |
| 2026-05-08 03:11 | 34.00040 | -117.71903 | 10002 ft | 287 kts | 264° |
| 2026-05-08 03:11 | 33.99842 | -117.74304 | 9621 ft | 290 kts | 262° |
| 2026-05-08 03:11 | 33.99595 | -117.76717 | 9205 ft | 288 kts | 261° |
| 2026-05-08 03:12 | 33.99330 | -117.79097 | 8825 ft | 284 kts | 261° |
| 2026-05-08 03:12 | 33.99070 | -117.81449 | 8446 ft | 282 kts | 261° |
| 2026-05-08 03:12 | 33.98820 | -117.83776 | 8066 ft | 279 kts | 262° |
| 2026-05-08 03:12 | 33.98581 | -117.86087 | 7687 ft | 276 kts | 262° |
| 2026-05-08 03:13 | 33.98372 | -117.88378 | 7264 ft | 274 kts | 269° |
| 2026-05-08 03:13 | 33.98651 | -117.90610 | 6888 ft | 270 kts | 275° |
| 2026-05-08 03:13 | 33.98509 | -117.92845 | 6569 ft | 267 kts | 258° |
| 2026-05-08 03:13 | 33.98126 | -117.95053 | 6099 ft | 269 kts | 258° |
| 2026-05-08 03:14 | 33.97816 | -117.97275 | 5705 ft | 268 kts | 260° |
| 2026-05-08 03:14 | 33.97522 | -117.99478 | 5363 ft | 265 kts | 261° |
| 2026-05-08 03:14 | 33.97334 | -118.01681 | 5273 ft | 265 kts | 264° |
| 2026-05-08 03:14 | 33.97206 | -118.03843 | 5267 ft | 255 kts | 264° |
| 2026-05-08 03:15 | 33.97032 | -118.05852 | 5260 ft | 227 kts | 262° |
| 2026-05-08 03:15 | 33.96833 | -118.07684 | 5146 ft | 218 kts | 262° |
| 2026-05-08 03:15 | 33.96643 | -118.09499 | 4882 ft | 218 kts | 262° |
| 2026-05-08 03:15 | 33.96465 | -118.11271 | 4534 ft | 207 kts | 263° |
| 2026-05-08 03:16 | 33.96298 | -118.12949 | 4198 ft | 196 kts | 262° |
| 2026-05-08 03:16 | 33.96137 | -118.14541 | 3888 ft | 187 kts | 262° |
| 2026-05-08 03:16 | 33.95979 | -118.16089 | 3633 ft | 186 kts | 262° |
| 2026-05-08 03:16 | 33.95822 | -118.17627 | 3420 ft | 184 kts | 262° |
| 2026-05-08 03:17 | 33.95665 | -118.19161 | 3183 ft | 184 kts | 262° |
| 2026-05-08 03:17 | 33.95509 | -118.20693 | 2941 ft | 185 kts | 261° |
| 2026-05-08 03:17 | 33.95353 | -118.22226 | 2717 ft | 185 kts | 261° |
| 2026-05-08 03:17 | 33.95195 | -118.23771 | 2474 ft | 185 kts | 260° |
| 2026-05-08 03:18 | 33.95038 | -118.25311 | 2224 ft | 185 kts | 260° |
| 2026-05-08 03:18 | 33.94883 | -118.26833 | 1990 ft | 185 kts | 260° |
| 2026-05-08 03:18 | 33.94730 | -118.28338 | 1737 ft | 174 kts | 259° |
| 2026-05-08 03:18 | 33.94594 | -118.29717 | 1523 ft | 159 kts | 259° |
| 2026-05-08 03:19 | 33.94464 | -118.31022 | 1315 ft | 156 kts | 259° |
| 2026-05-08 03:19 | 33.94332 | -118.32317 | 1100 ft | 156 kts | 259° |
| 2026-05-08 03:19 | 33.94201 | -118.33604 | 900 ft | 154 kts | 259° |
| 2026-05-08 03:19 | 33.94073 | -118.34880 | 699 ft | 152 kts | 259° |
| 2026-05-08 03:20 | 33.93946 | -118.36142 | 490 ft | 151 kts | 259° |
| 2026-05-08 03:20 | 33.93821 | -118.37366 | 299 ft | 148 kts | 261° |
| 2026-05-08 03:20 | 33.93695 | -118.38582 | 163 ft | 142 kts | 259° |
| 2026-05-08 03:20 | 33.93570 | -118.39724 | 128 ft | 123 kts | 261° |
| 2026-05-08 03:21 | 33.93505 | -118.40539 | 128 ft | 84 kts | 263° |
| 2026-05-08 03:21 | 33.93448 | -118.41081 | 125 ft | 56 kts | 263° |
| 2026-05-08 03:21 | 33.93403 | -118.41520 | 129 ft | 46 kts | 263° |
| 2026-05-08 03:21 | 33.93377 | -118.41787 | 125 ft | 20 kts | 268° |
| 2026-05-08 03:22 | 33.93437 | -118.41900 | 125 ft | 16 kts | 315° |
| 2026-05-08 03:22 | 33.93463 | -118.42029 | 126 ft | 13 kts | 264° |
| 2026-05-08 03:22 | 33.93452 | -118.42123 | 127 ft | 0 kts | 262° |
| 2026-05-08 03:22 | 33.93451 | -118.42137 | 126 ft | 0 kts | 262° |
| 2026-05-08 03:23 | 33.93452 | -118.42140 | 126 ft | 0 kts | 278° |
| 2026-05-08 03:23 | 33.93456 | -118.42146 | 127 ft | 3 kts | 301° |
| 2026-05-08 03:23 | 33.93487 | -118.42167 | 127 ft | 8 kts | 342° |
| 2026-05-08 03:23 | 33.93546 | -118.42186 | 127 ft | 10 kts | 345° |
| 2026-05-08 03:24 | 33.93617 | -118.42197 | 127 ft | 11 kts | 11° |
| 2026-05-08 03:24 | 33.93659 | -118.42126 | 129 ft | 12 kts | 75° |
| 2026-05-08 03:24 | 33.93673 | -118.42023 | 127 ft | 13 kts | 82° |
| 2026-05-08 03:24 | 33.93685 | -118.41903 | 129 ft | 15 kts | 83° |
| 2026-05-08 03:25 | 33.93698 | -118.41766 | 126 ft | 17 kts | 82° |
| 2026-05-08 03:25 | 33.93713 | -118.41616 | 125 ft | 19 kts | 83° |
| 2026-05-08 03:25 | 33.93730 | -118.41452 | 127 ft | 21 kts | 82° |
| 2026-05-08 03:25 | 33.93744 | -118.41320 | 127 ft | 12 kts | 80° |
| 2026-05-08 03:26 | 33.93799 | -118.41254 | 125 ft | 12 kts | 28° |
| 2026-05-08 03:26 | 33.93860 | -118.41179 | 124 ft | 13 kts | 28° |
| 2026-05-08 03:26 | 33.93951 | -118.41176 | 127 ft | 11 kts | 354° |
| 2026-05-08 03:26 | 33.94031 | -118.41187 | 126 ft | 12 kts | 353° |
| 2026-05-08 03:27 | 33.94083 | -118.41159 | 127 ft | 8 kts | 57° |
| 2026-05-08 03:27 | 33.94094 | -118.41125 | 126 ft | 1 kts | 76° |
| 2026-05-08 03:27 | 33.94096 | -118.41106 | 126 ft | 0 kts | 80° |
| 2026-05-08 03:27 | 33.94098 | -118.41092 | 124 ft | 3 kts | 81° |
| 2026-05-08 03:28 | 33.94099 | -118.41088 | 125 ft | 0 kts | 81° |